sensor_id;sensor_type;location;lat;lon;timestamp;P1;durP1;ratioP1;P2;durP2;ratioP2
12986;SDS011;58897;51.960;5.582;2023-07-20T00:02:22;13.03;;;6.53;;
12986;SDS011;58897;51.960;5.582;2023-07-20T00:04:49;11.77;;;6.13;;
12986;SDS011;58897;51.960;5.582;2023-07-20T00:07:19;13.87;;;6.17;;
12986;SDS011;58897;51.960;5.582;2023-07-20T00:09:46;13.10;;;6.60;;
12986;SDS011;58897;51.960;5.582;2023-07-20T00:12:14;7.87;;;5.30;;
12986;SDS011;58897;51.960;5.582;2023-07-20T00:14:41;9.43;;;5.60;;
12986;SDS011;58897;51.960;5.582;2023-07-20T00:17:07;14.13;;;6.67;;
12986;SDS011;58897;51.960;5.582;2023-07-20T00:19:34;8.93;;;5.37;;
12986;SDS011;58897;51.960;5.582;2023-07-20T00:22:04;11.53;;;5.97;;
12986;SDS011;58897;51.960;5.582;2023-07-20T00:24:31;14.17;;;7.47;;
12986;SDS011;58897;51.960;5.582;2023-07-20T00:26:58;10.93;;;6.10;;
12986;SDS011;58897;51.960;5.582;2023-07-20T00:29:27;15.87;;;7.73;;
12986;SDS011;58897;51.960;5.582;2023-07-20T00:31:54;14.27;;;6.70;;
12986;SDS011;58897;51.960;5.582;2023-07-20T00:34:20;14.60;;;7.93;;
12986;SDS011;58897;51.960;5.582;2023-07-20T00:36:47;15.40;;;7.57;;
12986;SDS011;58897;51.960;5.582;2023-07-20T00:39:15;14.37;;;7.33;;
12986;SDS011;58897;51.960;5.582;2023-07-20T00:41:42;12.60;;;7.03;;
12986;SDS011;58897;51.960;5.582;2023-07-20T00:44:09;13.60;;;7.63;;
12986;SDS011;58897;51.960;5.582;2023-07-20T00:46:36;13.43;;;6.93;;
12986;SDS011;58897;51.960;5.582;2023-07-20T00:49:03;12.97;;;7.53;;
12986;SDS011;58897;51.960;5.582;2023-07-20T00:51:30;35.07;;;11.97;;
12986;SDS011;58897;51.960;5.582;2023-07-20T00:53:57;20.27;;;8.57;;
12986;SDS011;58897;51.960;5.582;2023-07-20T00:56:24;12.27;;;6.33;;
12986;SDS011;58897;51.960;5.582;2023-07-20T00:58:52;23.73;;;10.13;;
12986;SDS011;58897;51.960;5.582;2023-07-20T01:01:19;17.20;;;8.33;;
12986;SDS011;58897;51.960;5.582;2023-07-20T01:03:45;14.57;;;6.83;;
12986;SDS011;58897;51.960;5.582;2023-07-20T01:14:16;13.17;;;5.50;;
12986;SDS011;58897;51.960;5.582;2023-07-20T01:16:43;12.93;;;5.77;;
12986;SDS011;58897;51.960;5.582;2023-07-20T01:19:12;11.37;;;5.03;;
12986;SDS011;58897;51.960;5.582;2023-07-20T01:24:32;14.00;;;5.73;;
12986;SDS011;58897;51.960;5.582;2023-07-20T01:30:10;13.40;;;6.37;;
12986;SDS011;58897;51.960;5.582;2023-07-20T01:32:48;10.93;;;5.17;;
12986;SDS011;58897;51.960;5.582;2023-07-20T01:35:17;10.07;;;4.60;;
12986;SDS011;58897;51.960;5.582;2023-07-20T01:37:46;9.37;;;4.43;;
12986;SDS011;58897;51.960;5.582;2023-07-20T01:40:14;12.30;;;4.83;;
12986;SDS011;58897;51.960;5.582;2023-07-20T01:42:45;6.90;;;3.63;;
12986;SDS011;58897;51.960;5.582;2023-07-20T01:45:13;13.57;;;5.13;;
12986;SDS011;58897;51.960;5.582;2023-07-20T01:47:39;9.13;;;4.00;;
12986;SDS011;58897;51.960;5.582;2023-07-20T01:50:06;8.33;;;4.13;;
12986;SDS011;58897;51.960;5.582;2023-07-20T01:52:33;9.43;;;4.33;;
12986;SDS011;58897;51.960;5.582;2023-07-20T01:55:00;10.07;;;4.30;;
12986;SDS011;58897;51.960;5.582;2023-07-20T01:57:26;8.83;;;3.80;;
12986;SDS011;58897;51.960;5.582;2023-07-20T01:59:53;9.40;;;3.87;;
12986;SDS011;58897;51.960;5.582;2023-07-20T02:02:19;8.03;;;3.57;;
12986;SDS011;58897;51.960;5.582;2023-07-20T02:04:47;8.53;;;3.67;;
12986;SDS011;58897;51.960;5.582;2023-07-20T02:07:13;6.57;;;3.10;;
12986;SDS011;58897;51.960;5.582;2023-07-20T02:09:40;7.90;;;3.60;;
12986;SDS011;58897;51.960;5.582;2023-07-20T02:12:06;8.57;;;3.47;;
12986;SDS011;58897;51.960;5.582;2023-07-20T02:14:33;6.43;;;3.17;;
12986;SDS011;58897;51.960;5.582;2023-07-20T02:17:00;7.93;;;3.70;;
12986;SDS011;58897;51.960;5.582;2023-07-20T02:19:28;7.37;;;3.33;;
12986;SDS011;58897;51.960;5.582;2023-07-20T02:21:56;8.70;;;4.10;;
12986;SDS011;58897;51.960;5.582;2023-07-20T02:24:23;7.40;;;3.43;;
12986;SDS011;58897;51.960;5.582;2023-07-20T02:26:49;7.73;;;3.70;;
12986;SDS011;58897;51.960;5.582;2023-07-20T02:29:16;7.17;;;2.83;;
12986;SDS011;58897;51.960;5.582;2023-07-20T02:31:42;7.53;;;3.67;;
12986;SDS011;58897;51.960;5.582;2023-07-20T02:34:09;5.37;;;2.83;;
12986;SDS011;58897;51.960;5.582;2023-07-20T02:36:36;9.50;;;3.57;;
12986;SDS011;58897;51.960;5.582;2023-07-20T02:39:02;6.30;;;3.30;;
12986;SDS011;58897;51.960;5.582;2023-07-20T02:41:30;6.73;;;3.17;;
12986;SDS011;58897;51.960;5.582;2023-07-20T02:43:58;9.77;;;3.93;;
12986;SDS011;58897;51.960;5.582;2023-07-20T02:46:25;8.87;;;3.70;;
12986;SDS011;58897;51.960;5.582;2023-07-20T02:48:52;9.47;;;3.83;;
12986;SDS011;58897;51.960;5.582;2023-07-20T02:51:18;10.27;;;3.97;;
12986;SDS011;58897;51.960;5.582;2023-07-20T02:53:45;10.03;;;3.77;;
12986;SDS011;58897;51.960;5.582;2023-07-20T02:56:11;10.30;;;4.10;;
12986;SDS011;58897;51.960;5.582;2023-07-20T02:58:40;9.03;;;3.63;;
12986;SDS011;58897;51.960;5.582;2023-07-20T03:01:09;8.27;;;3.77;;
12986;SDS011;58897;51.960;5.582;2023-07-20T03:03:37;8.00;;;3.30;;
12986;SDS011;58897;51.960;5.582;2023-07-20T03:06:05;8.60;;;3.87;;
12986;SDS011;58897;51.960;5.582;2023-07-20T03:08:32;7.20;;;3.57;;
12986;SDS011;58897;51.960;5.582;2023-07-20T03:10:58;8.53;;;4.13;;
12986;SDS011;58897;51.960;5.582;2023-07-20T03:13:25;9.30;;;3.80;;
12986;SDS011;58897;51.960;5.582;2023-07-20T03:15:52;7.60;;;3.87;;
12986;SDS011;58897;51.960;5.582;2023-07-20T03:18:19;7.50;;;3.80;;
12986;SDS011;58897;51.960;5.582;2023-07-20T03:20:46;10.97;;;4.47;;
12986;SDS011;58897;51.960;5.582;2023-07-20T03:23:12;8.97;;;3.43;;
12986;SDS011;58897;51.960;5.582;2023-07-20T03:25:39;9.27;;;3.80;;
12986;SDS011;58897;51.960;5.582;2023-07-20T03:28:06;5.77;;;3.20;;
12986;SDS011;58897;51.960;5.582;2023-07-20T03:30:32;7.47;;;3.73;;
12986;SDS011;58897;51.960;5.582;2023-07-20T03:32:59;7.97;;;3.40;;
12986;SDS011;58897;51.960;5.582;2023-07-20T03:35:26;7.63;;;3.80;;
12986;SDS011;58897;51.960;5.582;2023-07-20T03:37:52;7.80;;;3.83;;
12986;SDS011;58897;51.960;5.582;2023-07-20T03:40:19;8.83;;;3.93;;
12986;SDS011;58897;51.960;5.582;2023-07-20T03:42:46;9.77;;;4.27;;
12986;SDS011;58897;51.960;5.582;2023-07-20T03:45:12;9.47;;;4.07;;
12986;SDS011;58897;51.960;5.582;2023-07-20T03:47:39;8.23;;;3.87;;
12986;SDS011;58897;51.960;5.582;2023-07-20T03:50:05;9.07;;;4.27;;
12986;SDS011;58897;51.960;5.582;2023-07-20T03:52:33;9.23;;;4.03;;
12986;SDS011;58897;51.960;5.582;2023-07-20T03:54:59;11.27;;;4.70;;
12986;SDS011;58897;51.960;5.582;2023-07-20T03:57:26;7.87;;;3.53;;
12986;SDS011;58897;51.960;5.582;2023-07-20T03:59:53;10.67;;;4.40;;
12986;SDS011;58897;51.960;5.582;2023-07-20T04:02:19;10.27;;;3.93;;
12986;SDS011;58897;51.960;5.582;2023-07-20T04:04:46;8.83;;;3.80;;
12986;SDS011;58897;51.960;5.582;2023-07-20T04:07:12;7.67;;;3.67;;
12986;SDS011;58897;51.960;5.582;2023-07-20T04:09:39;6.57;;;3.23;;
12986;SDS011;58897;51.960;5.582;2023-07-20T04:12:06;10.60;;;4.10;;
12986;SDS011;58897;51.960;5.582;2023-07-20T04:14:33;7.87;;;3.30;;
12986;SDS011;58897;51.960;5.582;2023-07-20T04:17:00;6.80;;;3.20;;
12986;SDS011;58897;51.960;5.582;2023-07-20T04:19:27;7.43;;;3.30;;
12986;SDS011;58897;51.960;5.582;2023-07-20T04:21:56;8.70;;;3.47;;
12986;SDS011;58897;51.960;5.582;2023-07-20T04:24:23;5.43;;;3.03;;
12986;SDS011;58897;51.960;5.582;2023-07-20T04:26:52;8.60;;;3.67;;
12986;SDS011;58897;51.960;5.582;2023-07-20T04:29:19;7.80;;;3.70;;
12986;SDS011;58897;51.960;5.582;2023-07-20T04:31:46;8.23;;;3.63;;
12986;SDS011;58897;51.960;5.582;2023-07-20T04:34:12;9.23;;;4.23;;
12986;SDS011;58897;51.960;5.582;2023-07-20T04:36:39;6.93;;;3.40;;
12986;SDS011;58897;51.960;5.582;2023-07-20T04:39:05;8.90;;;4.23;;
12986;SDS011;58897;51.960;5.582;2023-07-20T04:41:54;10.23;;;4.10;;
12986;SDS011;58897;51.960;5.582;2023-07-20T04:44:21;8.53;;;3.60;;
12986;SDS011;58897;51.960;5.582;2023-07-20T04:46:47;8.73;;;4.10;;
12986;SDS011;58897;51.960;5.582;2023-07-20T04:49:14;7.07;;;3.43;;
12986;SDS011;58897;51.960;5.582;2023-07-20T04:51:41;7.43;;;3.80;;
12986;SDS011;58897;51.960;5.582;2023-07-20T04:54:07;9.23;;;4.23;;
12986;SDS011;58897;51.960;5.582;2023-07-20T04:56:34;8.70;;;3.70;;
12986;SDS011;58897;51.960;5.582;2023-07-20T04:59:00;7.40;;;3.87;;
12986;SDS011;58897;51.960;5.582;2023-07-20T05:01:27;8.10;;;3.17;;
12986;SDS011;58897;51.960;5.582;2023-07-20T05:03:56;7.30;;;3.40;;
12986;SDS011;58897;51.960;5.582;2023-07-20T05:06:24;7.47;;;3.47;;
12986;SDS011;58897;51.960;5.582;2023-07-20T05:08:51;8.27;;;3.60;;
12986;SDS011;58897;51.960;5.582;2023-07-20T05:11:17;5.03;;;2.83;;
12986;SDS011;58897;51.960;5.582;2023-07-20T05:13:44;9.43;;;3.93;;
12986;SDS011;58897;51.960;5.582;2023-07-20T05:16:11;8.20;;;3.80;;
12986;SDS011;58897;51.960;5.582;2023-07-20T05:18:40;9.17;;;3.80;;
12986;SDS011;58897;51.960;5.582;2023-07-20T05:21:07;9.13;;;4.20;;
12986;SDS011;58897;51.960;5.582;2023-07-20T05:23:34;11.20;;;4.27;;
12986;SDS011;58897;51.960;5.582;2023-07-20T05:26:01;8.73;;;4.60;;
12986;SDS011;58897;51.960;5.582;2023-07-20T05:28:27;8.73;;;3.97;;
12986;SDS011;58897;51.960;5.582;2023-07-20T05:30:55;12.10;;;5.43;;
12986;SDS011;58897;51.960;5.582;2023-07-20T05:33:22;9.80;;;4.00;;
12986;SDS011;58897;51.960;5.582;2023-07-20T05:35:48;12.00;;;5.27;;
12986;SDS011;58897;51.960;5.582;2023-07-20T05:38:15;12.53;;;4.87;;
12986;SDS011;58897;51.960;5.582;2023-07-20T05:40:43;7.70;;;3.77;;
12986;SDS011;58897;51.960;5.582;2023-07-20T05:43:10;9.77;;;4.20;;
12986;SDS011;58897;51.960;5.582;2023-07-20T05:45:41;9.43;;;4.07;;
12986;SDS011;58897;51.960;5.582;2023-07-20T05:48:08;9.63;;;4.33;;
12986;SDS011;58897;51.960;5.582;2023-07-20T05:50:38;10.47;;;4.50;;
12986;SDS011;58897;51.960;5.582;2023-07-20T05:53:08;8.20;;;4.00;;
12986;SDS011;58897;51.960;5.582;2023-07-20T05:55:35;9.37;;;4.43;;
12986;SDS011;58897;51.960;5.582;2023-07-20T05:58:01;9.37;;;4.03;;
12986;SDS011;58897;51.960;5.582;2023-07-20T06:00:30;8.97;;;3.67;;
12986;SDS011;58897;51.960;5.582;2023-07-20T06:02:57;8.37;;;4.13;;
12986;SDS011;58897;51.960;5.582;2023-07-20T06:05:24;8.37;;;4.03;;
12986;SDS011;58897;51.960;5.582;2023-07-20T06:07:54;6.03;;;3.33;;
12986;SDS011;58897;51.960;5.582;2023-07-20T06:10:21;8.73;;;3.80;;
12986;SDS011;58897;51.960;5.582;2023-07-20T06:12:48;9.17;;;4.37;;
12986;SDS011;58897;51.960;5.582;2023-07-20T06:15:24;9.03;;;4.10;;
12986;SDS011;58897;51.960;5.582;2023-07-20T06:17:53;7.63;;;3.47;;
12986;SDS011;58897;51.960;5.582;2023-07-20T06:20:21;7.40;;;3.40;;
12986;SDS011;58897;51.960;5.582;2023-07-20T06:22:48;9.63;;;3.00;;
12986;SDS011;58897;51.960;5.582;2023-07-20T06:25:15;7.07;;;2.90;;
12986;SDS011;58897;51.960;5.582;2023-07-20T06:27:42;8.00;;;3.20;;
12986;SDS011;58897;51.960;5.582;2023-07-20T06:30:09;6.87;;;2.73;;
12986;SDS011;58897;51.960;5.582;2023-07-20T06:32:36;8.23;;;3.03;;
12986;SDS011;58897;51.960;5.582;2023-07-20T06:35:03;5.43;;;2.23;;
12986;SDS011;58897;51.960;5.582;2023-07-20T06:37:30;6.57;;;2.53;;
12986;SDS011;58897;51.960;5.582;2023-07-20T06:39:56;6.63;;;2.57;;
12986;SDS011;58897;51.960;5.582;2023-07-20T06:42:26;6.97;;;2.90;;
12986;SDS011;58897;51.960;5.582;2023-07-20T06:45:13;8.23;;;3.10;;
12986;SDS011;58897;51.960;5.582;2023-07-20T06:47:39;7.17;;;3.00;;
12986;SDS011;58897;51.960;5.582;2023-07-20T06:50:06;9.63;;;3.63;;
12986;SDS011;58897;51.960;5.582;2023-07-20T06:52:33;6.60;;;2.93;;
12986;SDS011;58897;51.960;5.582;2023-07-20T06:55:00;11.00;;;3.90;;
12986;SDS011;58897;51.960;5.582;2023-07-20T06:57:31;8.13;;;3.33;;
12986;SDS011;58897;51.960;5.582;2023-07-20T06:59:58;6.40;;;3.23;;
12986;SDS011;58897;51.960;5.582;2023-07-20T07:02:24;6.67;;;2.90;;
12986;SDS011;58897;51.960;5.582;2023-07-20T07:04:51;5.57;;;2.80;;
12986;SDS011;58897;51.960;5.582;2023-07-20T07:07:26;3.83;;;2.13;;
12986;SDS011;58897;51.960;5.582;2023-07-20T07:09:53;9.03;;;3.73;;
12986;SDS011;58897;51.960;5.582;2023-07-20T07:12:19;8.40;;;3.80;;
12986;SDS011;58897;51.960;5.582;2023-07-20T07:14:46;6.10;;;3.37;;
12986;SDS011;58897;51.960;5.582;2023-07-20T07:17:13;7.93;;;3.90;;
12986;SDS011;58897;51.960;5.582;2023-07-20T07:19:45;6.07;;;2.83;;
12986;SDS011;58897;51.960;5.582;2023-07-20T07:22:14;6.73;;;3.57;;
12986;SDS011;58897;51.960;5.582;2023-07-20T07:24:41;8.13;;;3.60;;
12986;SDS011;58897;51.960;5.582;2023-07-20T07:27:08;5.20;;;2.90;;
12986;SDS011;58897;51.960;5.582;2023-07-20T07:29:35;6.97;;;3.27;;
12986;SDS011;58897;51.960;5.582;2023-07-20T07:32:02;8.47;;;3.43;;
12986;SDS011;58897;51.960;5.582;2023-07-20T07:34:29;9.07;;;3.33;;
12986;SDS011;58897;51.960;5.582;2023-07-20T07:36:56;6.73;;;3.50;;
12986;SDS011;58897;51.960;5.582;2023-07-20T07:39:22;8.20;;;3.67;;
12986;SDS011;58897;51.960;5.582;2023-07-20T07:41:53;7.83;;;3.20;;
12986;SDS011;58897;51.960;5.582;2023-07-20T07:44:20;7.27;;;3.13;;
12986;SDS011;58897;51.960;5.582;2023-07-20T07:46:47;7.97;;;3.43;;
12986;SDS011;58897;51.960;5.582;2023-07-20T07:49:15;6.97;;;3.43;;
12986;SDS011;58897;51.960;5.582;2023-07-20T07:51:42;6.63;;;2.70;;
12986;SDS011;58897;51.960;5.582;2023-07-20T07:54:09;7.87;;;2.93;;
12986;SDS011;58897;51.960;5.582;2023-07-20T07:56:36;5.97;;;2.60;;
12986;SDS011;58897;51.960;5.582;2023-07-20T07:59:02;4.83;;;2.43;;
12986;SDS011;58897;51.960;5.582;2023-07-20T08:01:29;7.43;;;2.87;;
12986;SDS011;58897;51.960;5.582;2023-07-20T08:03:56;7.30;;;2.80;;
12986;SDS011;58897;51.960;5.582;2023-07-20T08:06:23;5.80;;;2.23;;
12986;SDS011;58897;51.960;5.582;2023-07-20T08:08:51;9.63;;;3.27;;
12986;SDS011;58897;51.960;5.582;2023-07-20T08:11:17;6.83;;;3.13;;
12986;SDS011;58897;51.960;5.582;2023-07-20T08:13:44;7.30;;;2.13;;
12986;SDS011;58897;51.960;5.582;2023-07-20T08:16:11;6.70;;;2.77;;
12986;SDS011;58897;51.960;5.582;2023-07-20T08:18:37;5.00;;;2.17;;
12986;SDS011;58897;51.960;5.582;2023-07-20T08:21:04;3.67;;;1.93;;
12986;SDS011;58897;51.960;5.582;2023-07-20T08:23:31;6.07;;;2.53;;
12986;SDS011;58897;51.960;5.582;2023-07-20T08:25:57;4.87;;;2.07;;
12986;SDS011;58897;51.960;5.582;2023-07-20T08:28:24;5.07;;;2.03;;
12986;SDS011;58897;51.960;5.582;2023-07-20T08:30:53;7.07;;;3.53;;
12986;SDS011;58897;51.960;5.582;2023-07-20T08:33:19;7.37;;;3.23;;
12986;SDS011;58897;51.960;5.582;2023-07-20T08:35:46;7.97;;;2.80;;
12986;SDS011;58897;51.960;5.582;2023-07-20T08:38:13;6.90;;;3.07;;
12986;SDS011;58897;51.960;5.582;2023-07-20T08:40:40;12.07;;;4.67;;
12986;SDS011;58897;51.960;5.582;2023-07-20T08:43:10;10.43;;;3.47;;
12986;SDS011;58897;51.960;5.582;2023-07-20T08:45:38;12.03;;;4.33;;
12986;SDS011;58897;51.960;5.582;2023-07-20T08:48:06;8.40;;;3.17;;
12986;SDS011;58897;51.960;5.582;2023-07-20T08:50:34;6.43;;;3.03;;
12986;SDS011;58897;51.960;5.582;2023-07-20T08:53:02;8.00;;;2.90;;
12986;SDS011;58897;51.960;5.582;2023-07-20T08:55:29;2.57;;;1.60;;
12986;SDS011;58897;51.960;5.582;2023-07-20T08:57:57;5.60;;;2.57;;
12986;SDS011;58897;51.960;5.582;2023-07-20T09:00:25;5.43;;;2.27;;
12986;SDS011;58897;51.960;5.582;2023-07-20T09:02:53;6.10;;;2.37;;
12986;SDS011;58897;51.960;5.582;2023-07-20T09:05:21;3.43;;;1.93;;
12986;SDS011;58897;51.960;5.582;2023-07-20T09:07:50;3.97;;;2.00;;
12986;SDS011;58897;51.960;5.582;2023-07-20T09:10:19;5.20;;;2.47;;
12986;SDS011;58897;51.960;5.582;2023-07-20T09:12:47;4.70;;;2.17;;
12986;SDS011;58897;51.960;5.582;2023-07-20T09:15:14;5.70;;;2.63;;
12986;SDS011;58897;51.960;5.582;2023-07-20T09:17:48;4.53;;;2.30;;
12986;SDS011;58897;51.960;5.582;2023-07-20T09:20:17;7.33;;;3.13;;
12986;SDS011;58897;51.960;5.582;2023-07-20T09:22:48;4.40;;;1.90;;
12986;SDS011;58897;51.960;5.582;2023-07-20T09:25:18;3.60;;;1.83;;
12986;SDS011;58897;51.960;5.582;2023-07-20T09:27:48;5.87;;;2.90;;
12986;SDS011;58897;51.960;5.582;2023-07-20T09:30:18;3.67;;;1.90;;
12986;SDS011;58897;51.960;5.582;2023-07-20T09:32:46;3.23;;;1.70;;
12986;SDS011;58897;51.960;5.582;2023-07-20T09:35:17;5.90;;;2.13;;
12986;SDS011;58897;51.960;5.582;2023-07-20T09:38:00;4.50;;;1.90;;
12986;SDS011;58897;51.960;5.582;2023-07-20T09:40:30;5.40;;;2.60;;
12986;SDS011;58897;51.960;5.582;2023-07-20T09:43:07;5.83;;;2.50;;
12986;SDS011;58897;51.960;5.582;2023-07-20T09:45:41;5.53;;;2.43;;
12986;SDS011;58897;51.960;5.582;2023-07-20T09:48:11;4.70;;;2.20;;
12986;SDS011;58897;51.960;5.582;2023-07-20T09:50:42;6.33;;;2.87;;
12986;SDS011;58897;51.960;5.582;2023-07-20T09:53:14;4.67;;;2.17;;
12986;SDS011;58897;51.960;5.582;2023-07-20T09:55:44;4.43;;;1.97;;
12986;SDS011;58897;51.960;5.582;2023-07-20T09:58:11;5.57;;;2.77;;
12986;SDS011;58897;51.960;5.582;2023-07-20T10:00:38;3.13;;;1.73;;
12986;SDS011;58897;51.960;5.582;2023-07-20T10:03:10;4.40;;;2.10;;
12986;SDS011;58897;51.960;5.582;2023-07-20T10:05:46;4.50;;;2.07;;
12986;SDS011;58897;51.960;5.582;2023-07-20T10:08:17;6.50;;;3.37;;
12986;SDS011;58897;51.960;5.582;2023-07-20T10:10:49;5.50;;;2.67;;
12986;SDS011;58897;51.960;5.582;2023-07-20T10:13:17;6.27;;;2.53;;
12986;SDS011;58897;51.960;5.582;2023-07-20T10:15:50;6.23;;;2.40;;
12986;SDS011;58897;51.960;5.582;2023-07-20T10:20:48;5.37;;;2.70;;
12986;SDS011;58897;51.960;5.582;2023-07-20T10:23:20;3.43;;;1.77;;
12986;SDS011;58897;51.960;5.582;2023-07-20T10:25:48;3.47;;;1.80;;
12986;SDS011;58897;51.960;5.582;2023-07-20T10:28:16;4.47;;;2.27;;
12986;SDS011;58897;51.960;5.582;2023-07-20T10:30:43;3.57;;;1.80;;
12986;SDS011;58897;51.960;5.582;2023-07-20T10:33:11;4.30;;;2.10;;
12986;SDS011;58897;51.960;5.582;2023-07-20T10:35:57;3.80;;;2.07;;
12986;SDS011;58897;51.960;5.582;2023-07-20T10:41:19;2.17;;;1.30;;
12986;SDS011;58897;51.960;5.582;2023-07-20T10:43:48;2.53;;;1.53;;
12986;SDS011;58897;51.960;5.582;2023-07-20T10:46:16;5.10;;;2.47;;
12986;SDS011;58897;51.960;5.582;2023-07-20T10:49:06;3.73;;;2.30;;
12986;SDS011;58897;51.960;5.582;2023-07-20T10:51:40;4.13;;;2.10;;
12986;SDS011;58897;51.960;5.582;2023-07-20T10:56:44;4.33;;;2.20;;
12986;SDS011;58897;51.960;5.582;2023-07-20T10:59:23;5.37;;;2.70;;
12986;SDS011;58897;51.960;5.582;2023-07-20T11:02:07;5.83;;;2.53;;
12986;SDS011;58897;51.960;5.582;2023-07-20T11:04:41;5.27;;;2.30;;
12986;SDS011;58897;51.960;5.582;2023-07-20T11:07:09;6.00;;;2.80;;
12986;SDS011;58897;51.960;5.582;2023-07-20T11:09:37;6.20;;;2.70;;
12986;SDS011;58897;51.960;5.582;2023-07-20T11:12:09;4.80;;;2.10;;
12986;SDS011;58897;51.960;5.582;2023-07-20T11:14:54;4.30;;;2.43;;
12986;SDS011;58897;51.960;5.582;2023-07-20T11:17:32;5.13;;;2.30;;
12986;SDS011;58897;51.960;5.582;2023-07-20T11:20:00;5.80;;;2.50;;
12986;SDS011;58897;51.960;5.582;2023-07-20T11:22:31;4.80;;;2.10;;
12986;SDS011;58897;51.960;5.582;2023-07-20T11:24:58;5.17;;;2.30;;
12986;SDS011;58897;51.960;5.582;2023-07-20T11:27:25;5.20;;;2.20;;
12986;SDS011;58897;51.960;5.582;2023-07-20T11:29:52;5.73;;;2.30;;
12986;SDS011;58897;51.960;5.582;2023-07-20T11:32:22;7.17;;;3.30;;
12986;SDS011;58897;51.960;5.582;2023-07-20T11:34:50;6.20;;;2.40;;
12986;SDS011;58897;51.960;5.582;2023-07-20T11:37:17;6.67;;;2.70;;
12986;SDS011;58897;51.960;5.582;2023-07-20T11:39:45;5.50;;;2.40;;
12986;SDS011;58897;51.960;5.582;2023-07-20T11:42:13;4.77;;;2.57;;
12986;SDS011;58897;51.960;5.582;2023-07-20T11:44:59;4.23;;;2.20;;
12986;SDS011;58897;51.960;5.582;2023-07-20T11:47:31;4.83;;;2.60;;
12986;SDS011;58897;51.960;5.582;2023-07-20T11:50:02;4.30;;;2.00;;
12986;SDS011;58897;51.960;5.582;2023-07-20T11:52:30;4.07;;;2.07;;
12986;SDS011;58897;51.960;5.582;2023-07-20T11:54:57;2.93;;;1.47;;
12986;SDS011;58897;51.960;5.582;2023-07-20T11:57:24;5.07;;;2.57;;
12986;SDS011;58897;51.960;5.582;2023-07-20T11:59:54;4.60;;;2.23;;
12986;SDS011;58897;51.960;5.582;2023-07-20T12:02:27;4.60;;;2.30;;
12986;SDS011;58897;51.960;5.582;2023-07-20T12:04:56;3.07;;;1.57;;
12986;SDS011;58897;51.960;5.582;2023-07-20T12:07:25;3.60;;;1.60;;
12986;SDS011;58897;51.960;5.582;2023-07-20T12:10:04;5.70;;;2.37;;
12986;SDS011;58897;51.960;5.582;2023-07-20T12:12:32;4.93;;;2.23;;
12986;SDS011;58897;51.960;5.582;2023-07-20T12:15:16;4.83;;;2.50;;
12986;SDS011;58897;51.960;5.582;2023-07-20T12:17:51;4.83;;;2.17;;
12986;SDS011;58897;51.960;5.582;2023-07-20T12:20:35;5.27;;;2.57;;
12986;SDS011;58897;51.960;5.582;2023-07-20T12:25:41;4.23;;;2.10;;
12986;SDS011;58897;51.960;5.582;2023-07-20T12:28:12;5.67;;;2.03;;
12986;SDS011;58897;51.960;5.582;2023-07-20T12:30:41;4.57;;;2.30;;
12986;SDS011;58897;51.960;5.582;2023-07-20T12:33:08;4.93;;;2.43;;
12986;SDS011;58897;51.960;5.582;2023-07-20T12:35:35;4.33;;;2.23;;
12986;SDS011;58897;51.960;5.582;2023-07-20T12:38:02;3.97;;;2.00;;
12986;SDS011;58897;51.960;5.582;2023-07-20T12:40:29;6.17;;;2.73;;
12986;SDS011;58897;51.960;5.582;2023-07-20T12:42:56;5.80;;;2.50;;
12986;SDS011;58897;51.960;5.582;2023-07-20T12:45:23;6.03;;;2.57;;
12986;SDS011;58897;51.960;5.582;2023-07-20T12:47:50;6.07;;;2.40;;
12986;SDS011;58897;51.960;5.582;2023-07-20T12:50:16;5.63;;;2.70;;
12986;SDS011;58897;51.960;5.582;2023-07-20T12:52:43;5.33;;;2.50;;
12986;SDS011;58897;51.960;5.582;2023-07-20T12:55:10;4.60;;;2.50;;
12986;SDS011;58897;51.960;5.582;2023-07-20T12:57:37;5.23;;;2.70;;
12986;SDS011;58897;51.960;5.582;2023-07-20T13:00:04;3.97;;;2.10;;
12986;SDS011;58897;51.960;5.582;2023-07-20T13:02:34;4.33;;;2.00;;
12986;SDS011;58897;51.960;5.582;2023-07-20T13:05:02;3.60;;;1.70;;
12986;SDS011;58897;51.960;5.582;2023-07-20T13:07:36;3.63;;;2.00;;
12986;SDS011;58897;51.960;5.582;2023-07-20T13:10:06;5.27;;;2.27;;
12986;SDS011;58897;51.960;5.582;2023-07-20T13:12:34;3.77;;;1.70;;
12986;SDS011;58897;51.960;5.582;2023-07-20T13:15:02;3.53;;;1.90;;
12986;SDS011;58897;51.960;5.582;2023-07-20T13:17:32;4.10;;;1.77;;
12986;SDS011;58897;51.960;5.582;2023-07-20T13:19:59;4.47;;;2.00;;
12986;SDS011;58897;51.960;5.582;2023-07-20T13:22:26;4.70;;;2.00;;
12986;SDS011;58897;51.960;5.582;2023-07-20T13:24:53;5.30;;;2.50;;
12986;SDS011;58897;51.960;5.582;2023-07-20T13:27:20;3.37;;;1.77;;
12986;SDS011;58897;51.960;5.582;2023-07-20T13:29:47;8.63;;;3.80;;
12986;SDS011;58897;51.960;5.582;2023-07-20T13:32:14;9.70;;;4.07;;
12986;SDS011;58897;51.960;5.582;2023-07-20T13:34:42;7.77;;;3.60;;
12986;SDS011;58897;51.960;5.582;2023-07-20T13:37:14;7.10;;;2.97;;
12986;SDS011;58897;51.960;5.582;2023-07-20T13:39:42;7.37;;;2.87;;
12986;SDS011;58897;51.960;5.582;2023-07-20T13:42:10;10.43;;;3.93;;
12986;SDS011;58897;51.960;5.582;2023-07-20T13:44:39;6.23;;;2.93;;
12986;SDS011;58897;51.960;5.582;2023-07-20T13:47:05;5.87;;;2.10;;
12986;SDS011;58897;51.960;5.582;2023-07-20T13:49:35;8.77;;;3.40;;
12986;SDS011;58897;51.960;5.582;2023-07-20T13:52:12;8.50;;;4.10;;
12986;SDS011;58897;51.960;5.582;2023-07-20T13:54:41;8.13;;;3.50;;
12986;SDS011;58897;51.960;5.582;2023-07-20T13:57:11;6.23;;;2.87;;
12986;SDS011;58897;51.960;5.582;2023-07-20T13:59:37;4.00;;;2.17;;
12986;SDS011;58897;51.960;5.582;2023-07-20T14:02:04;7.57;;;3.07;;
12986;SDS011;58897;51.960;5.582;2023-07-20T14:04:34;9.23;;;4.37;;
12986;SDS011;58897;51.960;5.582;2023-07-20T14:07:02;6.43;;;2.87;;
12986;SDS011;58897;51.960;5.582;2023-07-20T14:09:29;9.53;;;3.60;;
12986;SDS011;58897;51.960;5.582;2023-07-20T14:11:55;6.60;;;2.77;;
12986;SDS011;58897;51.960;5.582;2023-07-20T14:14:25;6.70;;;3.20;;
12986;SDS011;58897;51.960;5.582;2023-07-20T14:16:52;7.73;;;3.27;;
12986;SDS011;58897;51.960;5.582;2023-07-20T14:19:19;8.17;;;3.77;;
12986;SDS011;58897;51.960;5.582;2023-07-20T14:21:45;5.60;;;2.47;;
12986;SDS011;58897;51.960;5.582;2023-07-20T14:24:12;7.07;;;2.60;;
12986;SDS011;58897;51.960;5.582;2023-07-20T14:26:38;6.87;;;3.30;;
12986;SDS011;58897;51.960;5.582;2023-07-20T14:29:09;7.17;;;2.93;;
12986;SDS011;58897;51.960;5.582;2023-07-20T14:31:36;4.90;;;2.20;;
12986;SDS011;58897;51.960;5.582;2023-07-20T14:34:02;8.27;;;2.90;;
12986;SDS011;58897;51.960;5.582;2023-07-20T14:36:29;6.53;;;3.17;;
12986;SDS011;58897;51.960;5.582;2023-07-20T14:38:59;5.47;;;2.20;;
12986;SDS011;58897;51.960;5.582;2023-07-20T14:41:25;9.27;;;4.07;;
12986;SDS011;58897;51.960;5.582;2023-07-20T14:43:52;11.80;;;4.67;;
12986;SDS011;58897;51.960;5.582;2023-07-20T14:46:19;7.87;;;2.53;;
12986;SDS011;58897;51.960;5.582;2023-07-20T14:48:47;7.57;;;3.57;;
12986;SDS011;58897;51.960;5.582;2023-07-20T14:51:14;7.50;;;3.03;;
12986;SDS011;58897;51.960;5.582;2023-07-20T14:53:40;3.80;;;1.97;;
12986;SDS011;58897;51.960;5.582;2023-07-20T14:56:07;6.27;;;2.67;;
12986;SDS011;58897;51.960;5.582;2023-07-20T14:58:44;9.03;;;4.03;;
12986;SDS011;58897;51.960;5.582;2023-07-20T15:01:11;8.47;;;4.20;;
12986;SDS011;58897;51.960;5.582;2023-07-20T15:03:37;4.43;;;2.13;;
12986;SDS011;58897;51.960;5.582;2023-07-20T15:06:04;9.53;;;4.30;;
12986;SDS011;58897;51.960;5.582;2023-07-20T15:08:37;8.67;;;3.57;;
12986;SDS011;58897;51.960;5.582;2023-07-20T15:11:03;11.13;;;3.93;;
12986;SDS011;58897;51.960;5.582;2023-07-20T15:13:30;4.53;;;2.20;;
12986;SDS011;58897;51.960;5.582;2023-07-20T15:19:43;4.93;;;2.10;;
12986;SDS011;58897;51.960;5.582;2023-07-20T15:22:10;9.83;;;4.00;;